Carson Valley, Nevada Weather observations

Data are for 10 minute period ending at time listed.
 Day   Time   Solar   Ave.   Ave.  Ave.  Vector  Max.   Baro.   Total    
  of    of     Rad.   Air    Rel.  Wind   Wind   Wind  Press.  Precip.   
Year   Day            Temp.  Hum.  Speed  Dir.   Gust                    
2015   (PST)  Kw/m2    F      %     mph   deg.    mph    mb.     in.     
-------------------------------------------------------------------------
 114    0:00   0.00   44.9    84    3.5    12     7.7   849.5    0.00 
 114    0:10   0.00   44.9    84    2.1    11     4.6   849.6    0.00 
 114    0:20   0.00   44.9    84    2.6   133     4.1   849.6    0.00 
 114    0:30   0.00   44.7    85    1.9   256     4.9   849.5    0.00 
 114    0:40   0.00   44.8    87    3.8    17     6.1   849.4    0.00 
 114    0:50   0.00   44.9    87    2.6   300     6.5   849.5    0.00 
 114    1:00   0.00   45.5    83    3.8   346     7.3   849.4    0.00 
 114    1:10   0.00   45.5    80    7.5   340    12.2   849.4    0.00 
 114    1:20   0.00   44.6    80    7.7   338    12.1   849.3    0.00 
 114    1:30   0.00   45.2    78    5.1   324     8.0   849.2    0.00 
 114    1:40   0.00   46.7    72    8.8   293    15.3   849.0    0.00 
 114    1:50   0.00   46.5    70   15.5   288    23.0   849.1    0.00 
 114    2:00   0.00   45.0    76   12.6   296    18.2   849.1    0.00 
 114    2:10   0.00   44.3    79   11.7   296    20.8   849.2    0.00 
 114    2:20   0.00   44.1    80   12.8   296    18.2   849.1    0.00 
 114    2:30   0.00   43.4    83   13.9   293    20.2   849.0    0.01 
 114    2:40   0.00   43.5    83   11.4   297    15.3   849.0    0.02 
 114    2:50   0.00   43.7    82   12.5   286    18.0   849.2    0.00 
 114    3:00   0.00   43.7    82   12.0   291    17.8   849.3    0.02 
 114    3:10   0.00   42.8    86    6.8   306    12.5   849.3    0.03 
 114    3:20   0.00   43.1    87    4.4   256     6.8   849.5    0.03 
 114    3:30   0.00   43.4    87    4.6   166     6.3   849.3    0.04 
 114    3:40   0.00   43.0    88    4.1   195     5.6   849.2    0.02 
 114    3:50   0.00   42.7    89    3.6   207     5.6   849.0    0.00 
 114    4:00   0.00   42.9    88    4.0   234     7.2   849.0    0.00 
 114    4:10   0.00   42.7    87    1.5   192     3.2   848.8    0.00 
 114    4:20   0.00   41.6    88    4.1    99     8.4   849.0    0.00 
 114    4:30   0.00   42.3    90    4.5    99     9.5   848.9    0.00 
 114    4:40   0.00   42.1    91    5.3   131     7.2   848.9    0.00 
 114    4:50   0.00   42.4    92    3.6   146     5.8   848.8    0.00 
 114    5:00   0.00   42.7    91    3.7   187     5.9   848.9    0.00 
 114    5:10   0.00   42.8    90    1.6   261     3.3   848.9    0.00 
 114    5:20   0.00   42.9    90    3.9   248     6.2   849.0    0.00 
 114    5:30   0.00   43.0    90    3.9   286     6.4   849.0    0.00 
 114    5:40   0.01   42.9    90    2.7    14     4.5   849.0    0.00 
 114    5:50   0.02   43.0    91    4.9   347     6.7   849.1    0.00 
 114    6:00   0.02   43.3    91    4.1   335     6.9   849.1    0.00 
 114    6:10   0.04   43.4    90    3.1   315     4.4   849.1    0.00 
 114    6:20   0.05   43.8    90    2.4   340     5.1   849.2    0.00 
 114    6:30   0.08   44.2    90    4.2    54     7.3   849.3    0.00 
 114    6:40   0.11   44.6    89    6.1    27    10.3   849.4    0.00 
 114    6:50   0.11   45.3    87    6.6    33     9.7   849.4    0.00 
 114    7:00   0.08   46.3    82    2.8   347     7.6   849.5    0.00 
 114    7:10   0.12   46.8    77    2.6   192     6.0   849.6    0.00 
 114    7:20   0.25   49.1    66    2.6   165     5.3   849.7    0.00 
 114    7:30   0.18   49.5    72    4.2   132     6.0   849.8    0.00 
 114    7:40   0.20   49.8    61    2.3   162     6.0   849.8    0.00 
 114    7:50   0.18   50.8    54    4.6   197    10.1   849.9    0.00 
 114    8:00   0.13   50.3    54    5.2   219    12.8   850.0    0.00 
 114    8:10   0.20   50.3    53    5.6   218    11.4   850.1    0.00 
 114    8:20   0.34   51.6    50    5.0   190     9.3   850.1    0.00 
 114    8:30   0.44   52.2    48    9.8   176    17.7   850.1    0.00 
 114    8:40   0.24   51.5    49    8.8   202    13.7   850.2    0.00 
 114    8:50   0.25   51.0    50    9.8   236    19.4   850.4    0.00 
 114    9:00   0.27   50.8    50    9.4   251    17.1   850.5    0.00 
 114    9:10   0.27   51.0    48   10.9   220    20.3   850.5    0.00 
 114    9:20   0.24   50.8    48   11.6   234    28.0   850.5    0.00 
 114    9:30   0.18   50.7    48   10.6   244    23.0   850.6    0.00 
 114    9:40   0.19   50.7    50    9.9   278    19.1   850.6    0.00 
 114    9:50   0.13   50.4    51    9.4   246    15.3   850.8    0.00 
 114   10:00   0.21   50.5    50    9.0   254    18.0   850.8    0.00 
 114   10:10   0.27   51.7    50    2.9   318     6.4   850.8    0.00 
 114   10:20   0.19   50.9    53    4.3   305    11.9   851.0    0.00 
 114   10:30   0.30   51.3    50    5.4   273    12.2   850.9    0.00 
 114   10:40   0.28   52.1    44    4.5    27    10.4   850.8    0.00 
 114   10:50   0.38   52.8    44    7.9   210    14.1   850.8    0.00 
 114   11:00   0.29   52.5    43    9.0   217    23.6   850.8    0.00 
 114   11:10   0.33   52.6    44   10.0   240    18.5   850.7    0.00 
 114   11:20   0.22   52.1    45   10.3   225    20.1   850.7    0.00 
 114   11:30   0.18   51.9    44   13.1   236    27.0   850.6    0.00 
 114   11:40   0.36   51.9    45   16.0   239    29.7   850.4    0.00 
 114   11:50   1.08   54.5    46   14.5   244    25.4   850.3    0.00 
 114   12:00   1.05   55.1    47   12.0   251    28.9   850.4    0.00 
 114   12:10   0.79   54.3    48   13.4   253    25.6   850.6    0.00 
 114   12:20   0.65   53.1    49   14.1   232    30.0   851.0    0.00 
 114   12:30   0.96   53.4    52   15.1   199    31.0   851.3    0.00 
 114   12:40   0.65   52.1    52    7.5   340    36.2   851.3    0.00 
 114   12:50   0.54   53.0    49    8.1   111    17.4   851.2    0.00 
 114   13:00   0.83   53.5    50   11.6   224    25.1   851.3    0.00 
 114   13:10   0.41   52.9    49    7.1   231    19.0   851.2    0.00 
 114   13:20   0.45   53.3    48    8.8   225    21.0   851.3    0.00 
 114   13:30   0.97   54.7    47    8.7   247    21.3   851.3    0.00 
 114   13:40   1.05   54.4    45   12.1   235    27.8   851.4    0.00 
 114   13:50   0.98   55.9    43    5.3   310    16.3   851.3    0.00 
 114   14:00   0.62   54.1    47   12.5   244    29.3   851.4    0.00 
 114   14:10   0.86   53.8    46   16.5   237    32.5   851.4    0.00 
 114   14:20   0.95   55.1    44   13.5   217    22.4   851.3    0.00 
 114   14:30   0.94   55.2    44   12.5   218    27.5   851.3    0.00 
 114   14:40   0.89   54.7    43   11.4   228    24.3   851.3    0.00 
 114   14:50   0.84   56.4    41    9.9   220    19.3   851.0    0.00 
 114   15:00   0.65   54.3    40   13.5   239    24.5   850.9    0.00 
 114   15:10   0.73   55.3    39   11.3   203    23.8   851.0    0.00 
 114   15:20   0.59   54.5    41   12.3   231    25.2   850.9    0.00 
 114   15:30   0.65   54.7    41   11.6   254    24.0   850.9    0.00 
 114   15:40   0.66   54.5    41   13.1   239    30.4   851.0    0.00 
 114   15:50   0.61   54.1    43   12.7   250    26.0   851.1    0.00 
 114   16:00   0.55   53.5    43   14.3   275    23.2   851.2    0.00 
 114   16:10   0.40   52.7    41   12.8   257    19.4   851.2    0.00 
 114   16:20   0.52   52.9    41   17.5   258    26.9   851.2    0.00 
 114   16:30   0.34   52.1    43   15.7   259    22.6   851.1    0.00 
 114   16:40   0.37   51.8    44   12.9   238    24.2   851.3    0.00 
 114   16:50   0.38   52.4    42   12.6   230    24.3   851.4    0.00 
 114   17:00   0.32   51.9    42   12.0   231    23.5   851.5    0.00 
 114   17:10   0.38   52.6    39    6.4   174    16.3   851.5    0.00 
 114   17:20   0.30   53.4    38    4.7   229    13.4   851.5    0.00 
 114   17:30   0.11   51.7    37    3.2   215    14.2   851.5    0.00 
 114   17:40   0.08   50.3    41    5.2   221    13.2   851.5    0.00 
 114   17:50   0.06   49.4    42   11.9   215    27.5   851.5    0.00 
 114   18:00   0.04   48.8    43    9.3   230    17.5   851.5    0.00 
 114   18:10   0.03   48.5    43    7.8   221    21.3   851.5    0.00 
 114   18:20   0.03   48.2    42    5.0    14    11.8   851.5    0.00 
 114   18:30   0.02   48.0    43    3.3   230     8.3   851.8    0.00 
 114   18:40   0.01   47.6    44    5.0   208    12.1   851.9    0.00 
 114   18:50   0.00   47.3    45    6.5   212    14.1   852.0    0.00 
 114   19:00   0.00   47.5    43    6.0   231    16.3   852.0    0.00 
 114   19:10   0.00   47.6    43    4.0   208    13.0   851.8    0.00 
 114   19:20   0.00   47.1    45    2.5   128    13.8   851.8    0.00 
 114   19:30   0.00   46.7    47    4.1   127    12.2   851.8    0.00 
 114   19:40   0.00   46.3    48    3.6   212     8.3   851.8    0.00 
 114   19:50   0.00   46.5    48    4.7   204    13.4   851.8    0.00 
 114   20:00   0.00   46.6    48    3.6   159     8.3   851.7    0.00 
 114   20:10   0.00   46.4    49    3.7    95     8.2   851.6    0.00 
 114   20:20   0.00   45.7    50    3.9    82     7.5   851.4    0.00 
 114   20:30   0.00   45.0    52    3.9   149    10.9   851.4    0.00 
 114   20:40   0.00   45.1    53    3.5   193     6.2   851.5    0.00 
 114   20:50   0.00   45.0    55    6.3   194    11.5   851.7    0.00 
 114   21:00   0.00   45.7    52    7.0   202    10.7   851.6    0.00 
 114   21:10   0.00   45.1    56    3.5   223     7.7   851.6    0.00 
 114   21:20   0.00   44.5    56    1.4   193     2.7   851.4    0.00 
 114   21:30   0.00   43.7    59    5.1   208     7.6   851.3    0.00 
 114   21:40   0.00   43.1    62    2.8   197     4.2   851.2    0.00 
 114   21:50   0.00   42.4    65    2.5   230     5.2   851.0    0.00 
 114   22:00   0.00   42.1    66    7.0   221    10.3   850.8    0.00 
 114   22:10   0.00   43.8    60    8.2   202    12.0   850.7    0.00 
 114   22:20   0.00   44.5    58    8.8   190    15.1   850.6    0.00 
 114   22:30   0.00   44.9    58    8.6   201    14.7   850.5    0.00 
 114   22:40   0.00   44.7    59    8.9   201    16.8   850.6    0.00 

Return to Carson Valley graphs page.


Western Regional Climate Center,wrcc@dri.edu